Time;durP1;ratioP1;P1;durP2;ratioP2;P2;SDS_P1;SDS_P2;PMS_P1;PMS_P2;Temp;Humidity;BMP_temperature;BMP_pressure;BME280_temperature;BME280_humidity;BME280_pressure;Samples;Min_cycle;Max_cycle;Signal;HPM_P1;HPM_P2
2022/12/01 00:04:49;;;;;;;;;;;;;;;;;;5112673;22;19929;-53
2022/12/01 00:07:15;;;;;;;;;;;;;;;;;;5062338;28;19959;-53
2022/12/01 00:12:25;;;;;;;;;;;;;;;;;;5092816;28;20303;-54
2022/12/01 00:14:59;;;;;;;;;;;;;;;;;;5074366;28;19912;-53
2022/12/01 00:17:25;;;;;;;;;;;;;;;;;;5094121;28;19955;-55
2022/12/01 00:19:51;;;;;;;;;;;;;;;;;;5094231;28;19957;-54
2022/12/01 00:22:18;;;;;;;;;;;;;;;;;;5093685;28;19919;-55
2022/12/01 00:24:43;;;;;;;;;;;;;;;;;;5093444;28;19943;-54
2022/12/01 00:27:09;;;;;;;;;;;;;;;;;;5094375;28;19956;-54
2022/12/01 00:29:35;;;;;;;;;;;;;;;;;;5094021;28;19967;-53
2022/12/01 00:32:01;;;;;;;;;;;;;;;;;;5094123;28;20003;-53
2022/12/01 00:34:27;;;;;;;;;;;;;;;;;;5093265;28;19916;-53
2022/12/01 00:36:53;;;;;;;;;;;;;;;;;;5093619;28;19912;-53
2022/12/01 00:39:19;;;;;;;;;;;;;;;;;;5093403;28;20300;-56
2022/12/01 00:41:45;;;;;;;;;;;;;;;;;;5093832;28;19912;-54
2022/12/01 00:44:11;;;;;;;;;;;;;;;;;;5093736;28;20321;-56
2022/12/01 00:46:37;;;;;;;;;;;;;;;;;;5092959;28;19999;-55
2022/12/01 00:49:03;;;;;;;;;;;;;;;;;;5093652;28;20011;-54
2022/12/01 00:51:29;;;;;;;;;;;;;;;;;;5093051;28;19994;-56
2022/12/01 00:53:54;;;;;;;;;;;;;;;;;;5093402;28;20062;-57
2022/12/01 00:56:20;;;;;;;;;;;;;;;;;;5093626;28;19912;-56
2022/12/01 00:58:46;;;;;;;;;;;;;;;;;;5093244;28;19912;-53
2022/12/01 01:01:12;;;;;;;;;;;;;;;;;;5093883;28;20017;-54
2022/12/01 01:03:38;;;;;;;;;;;;;;;;;;5074775;28;19939;-53
2022/12/01 01:06:04;;;;;;;;;;;;;;;;;;5093357;28;19943;-54
2022/12/01 01:08:30;;;;;;;;;;;;;;;;;;5074622;28;20019;-54
2022/12/01 01:10:56;;;;;;;;;;;;;;;;;;5093216;28;20003;-52
2022/12/01 01:13:22;;;;;;;;;;;;;;;;;;5092806;28;19912;-53
2022/12/01 01:15:48;;;;;;;;;;;;;;;;;;5092989;28;19912;-53
2022/12/01 01:18:14;;;;;;;;;;;;;;;;;;5074577;28;19919;-54
2022/12/01 01:20:40;;;;;;;;;;;;;;;;;;5093070;28;19991;-53
2022/12/01 01:23:05;;;;;;;;;;;;;;;;;;5092574;28;20006;-53
2022/12/01 01:25:31;;;;;;;;;;;;;;;;;;5093084;28;20344;-54
2022/12/01 01:27:57;;;;;;;;;;;;;;;;;;5092781;28;19923;-56
2022/12/01 01:30:23;;;;;;;;;;;;;;;;;;5074546;28;20295;-54
2022/12/01 01:32:49;;;;;;;;;;;;;;;;;;5092730;28;19912;-53
2022/12/01 01:35:15;;;;;;;;;;;;;;;;;;5074319;28;19908;-56
2022/12/01 01:37:41;;;;;;;;;;;;;;;;;;5092709;28;19908;-55
2022/12/01 01:40:07;;;;;;;;;;;;;;;;;;5074532;28;20364;-53
2022/12/01 01:42:33;;;;;;;;;;;;;;;;;;5072635;28;19927;-55
2022/12/01 01:44:59;;;;;;;;;;;;;;;;;;5072533;28;19915;-54
2022/12/01 01:47:25;;;;;;;;;;;;;;;;;;5072489;28;19916;-54
2022/12/01 01:49:51;;;;;;;;;;;;;;;;;;5072278;28;20289;-55
2022/12/01 01:52:17;;;;;;;;;;;;;;;;;;5072519;28;19908;-57
2022/12/01 01:54:43;;;;;;;;;;;;;;;;;;5092675;28;19909;-53
2022/12/01 01:57:09;;;;;;;;;;;;;;;;;;5092771;28;19908;-54
2022/12/01 01:59:35;;;;;;;;;;;;;;;;;;5092628;28;19909;-55
2022/12/01 02:02:00;;;;;;;;;;;;;;;;;;5092689;28;19938;-55
2022/12/01 02:04:26;;;;;;;;;;;;;;;;;;5091899;28;19916;-54
2022/12/01 02:06:52;;;;;;;;;;;;;;;;;;5092536;28;20379;-54
2022/12/01 02:09:18;;;;;;;;;;;;;;;;;;5092047;28;19919;-56
2022/12/01 02:11:47;;;;;;;;;;;;;;;;;;5091096;28;19916;-54
2022/12/01 02:14:13;;;;;;;;;;;;;;;;;;5092335;28;20003;-56
2022/12/01 02:16:39;;;;;;;;;;;;;;;;;;5092036;28;20418;-57
2022/12/01 02:19:05;;;;;;;;;;;;;;;;;;5091541;28;20030;-54
2022/12/01 02:21:31;;;;;;;;;;;;;;;;;;5091895;28;19958;-56
2022/12/01 02:23:57;;;;;;;;;;;;;;;;;;5091649;28;19988;-55
2022/12/01 02:26:23;;;;;;;;;;;;;;;;;;5091870;28;19970;-53
2022/12/01 02:28:48;;;;;;;;;;;;;;;;;;5091582;28;20390;-53
2022/12/01 02:31:14;;;;;;;;;;;;;;;;;;5091659;28;19973;-55
2022/12/01 02:33:40;;;;;;;;;;;;;;;;;;5091388;28;19986;-55
2022/12/01 02:36:06;;;;;;;;;;;;;;;;;;5091670;28;19955;-57
2022/12/01 02:38:32;;;;;;;;;;;;;;;;;;5091472;28;20362;-57
2022/12/01 02:40:58;;;;;;;;;;;;;;;;;;5092011;28;19994;-56
2022/12/01 02:43:24;;;;;;;;;;;;;;;;;;5091692;28;20322;-55
2022/12/01 02:45:50;;;;;;;;;;;;;;;;;;5091982;28;19916;-54
2022/12/01 02:48:16;;;;;;;;;;;;;;;;;;5094602;28;19927;-54
2022/12/01 02:50:42;;;;;;;;;;;;;;;;;;5095166;28;19926;-55
2022/12/01 02:53:08;;;;;;;;;;;;;;;;;;5096024;28;19912;-55
2022/12/01 02:55:34;;;;;;;;;;;;;;;;;;5095560;28;19912;-54
2022/12/01 02:58:00;;;;;;;;;;;;;;;;;;5095958;28;20368;-54
2022/12/01 03:00:25;;;;;;;;;;;;;;;;;;5095478;28;19943;-55
2022/12/01 03:02:51;;;;;;;;;;;;;;;;;;5095436;28;19986;-53
2022/12/01 03:05:17;;;;;;;;;;;;;;;;;;5096153;28;19908;-54
2022/12/01 03:07:43;;;;;;;;;;;;;;;;;;5095725;28;19912;-56
2022/12/01 03:10:09;;;;;;;;;;;;;;;;;;5095226;28;19958;-57
2022/12/01 03:12:35;;;;;;;;;;;;;;;;;;5095544;28;20288;-53
2022/12/01 03:15:02;;;;;;;;;;;;;;;;;;5095462;28;19912;-56
2022/12/01 03:17:28;;;;;;;;;;;;;;;;;;5095022;28;19996;-57
2022/12/01 03:19:54;;;;;;;;;;;;;;;;;;5095183;28;19993;-54
2022/12/01 03:22:21;;;;;;;;;;;;;;;;;;5076961;28;19916;-57
2022/12/01 03:24:47;;;;;;;;;;;;;;;;;;5095169;28;19912;-54
2022/12/01 03:27:13;;;;;;;;;;;;;;;;;;5095302;28;20265;-57
2022/12/01 03:29:40;;;;;;;;;;;;;;;;;;5076807;28;19927;-55
2022/12/01 03:32:06;;;;;;;;;;;;;;;;;;5095052;28;20003;-54
2022/12/01 03:34:32;;;;;;;;;;;;;;;;;;5095337;28;19947;-54
2022/12/01 03:36:58;;;;;;;;;;;;;;;;;;5094747;28;19908;-54
2022/12/01 03:39:23;;;;;;;;;;;;;;;;;;5094021;28;19915;-55
2022/12/01 03:41:49;;;;;;;;;;;;;;;;;;5095556;28;19918;-57
2022/12/01 03:44:15;;;;;;;;;;;;;;;;;;5095049;28;19959;-55
2022/12/01 03:46:43;;;;;;;;;;;;;;;;;;5095187;28;19951;-53
2022/12/01 03:49:09;;;;;;;;;;;;;;;;;;5069481;28;19920;-54
2022/12/01 03:51:35;;;;;;;;;;;;;;;;;;5086924;28;19912;-54
2022/12/01 03:54:01;;;;;;;;;;;;;;;;;;5094325;28;19919;-55
2022/12/01 03:56:26;;;;;;;;;;;;;;;;;;5094541;28;20277;-54
2022/12/01 03:58:52;;;;;;;;;;;;;;;;;;5093811;28;19964;-54
2022/12/01 04:01:21;;;;;;;;;;;;;;;;;;5094422;28;19966;-54
2022/12/01 04:03:47;;;;;;;;;;;;;;;;;;5094027;28;20012;-52
2022/12/01 04:06:12;;;;;;;;;;;;;;;;;;5094264;28;20010;-53
2022/12/01 04:08:38;;;;;;;;;;;;;;;;;;5094219;28;19920;-55
2022/12/01 04:12:28;;;;;;;;;;;;;;;;;;5076229;28;20007;-55
2022/12/01 04:13:50;;;;;;;;;;;;;;;;;;5091356;28;19920;-57
2022/12/01 04:16:16;;;;;;;;;;;;;;;;;;5093586;28;20314;-58
2022/12/01 04:18:42;;;;;;;;;;;;;;;;;;5080253;28;19908;-55
2022/12/01 04:21:08;;;;;;;;;;;;;;;;;;5081077;28;19909;-56
2022/12/01 04:26:18;;;;;;;;;;;;;;;;;;5093894;28;19965;-58
2022/12/01 04:28:44;;;;;;;;;;;;;;;;;;5093930;28;19912;-57
2022/12/01 04:31:10;;;;;;;;;;;;;;;;;;5093810;28;20432;-55
2022/12/01 04:33:36;;;;;;;;;;;;;;;;;;5093629;28;19919;-54
2022/12/01 04:36:02;;;;;;;;;;;;;;;;;;5093166;28;19981;-55
2022/12/01 04:38:28;;;;;;;;;;;;;;;;;;5094049;28;19977;-54
2022/12/01 04:40:54;;;;;;;;;;;;;;;;;;5075694;28;19912;-55
2022/12/01 04:43:20;;;;;;;;;;;;;;;;;;5075496;28;20011;-54
2022/12/01 04:45:46;;;;;;;;;;;;;;;;;;5075630;28;19916;-55
2022/12/01 04:48:12;;;;;;;;;;;;;;;;;;5093664;28;20008;-54
2022/12/01 04:50:37;;;;;;;;;;;;;;;;;;5093261;28;20510;-52
2022/12/01 04:53:03;;;;;;;;;;;;;;;;;;5074349;28;19999;-54
2022/12/01 04:55:29;;;;;;;;;;;;;;;;;;5094048;28;20000;-53
2022/12/01 04:57:56;;;;;;;;;;;;;;;;;;5093766;28;19993;-54
2022/12/01 05:00:22;;;;;;;;;;;;;;;;;;5092445;28;19911;-58
2022/12/01 05:02:48;;;;;;;;;;;;;;;;;;5084239;28;20362;-57
2022/12/01 05:05:14;;;;;;;;;;;;;;;;;;5073325;28;19917;-56
2022/12/01 05:07:40;;;;;;;;;;;;;;;;;;5073746;28;19908;-53
2022/12/01 05:10:06;;;;;;;;;;;;;;;;;;5072668;28;19978;-57
2022/12/01 05:12:32;;;;;;;;;;;;;;;;;;5072770;28;19908;-58
2022/12/01 05:14:58;;;;;;;;;;;;;;;;;;5073278;28;19909;-54
2022/12/01 05:17:24;;;;;;;;;;;;;;;;;;5073621;28;19915;-54
2022/12/01 05:22:34;;;;;;;;;;;;;;;;;;5073297;28;19990;-55
2022/12/01 05:25:00;;;;;;;;;;;;;;;;;;5073117;28;20365;-58
2022/12/01 05:27:26;;;;;;;;;;;;;;;;;;5073321;28;19931;-55
2022/12/01 05:29:52;;;;;;;;;;;;;;;;;;5072705;28;19919;-57
2022/12/01 05:32:18;;;;;;;;;;;;;;;;;;5073059;28;19916;-53
2022/12/01 05:34:44;;;;;;;;;;;;;;;;;;5072721;28;19915;-53
2022/12/01 05:37:10;;;;;;;;;;;;;;;;;;5072692;28;20364;-55
2022/12/01 05:39:36;;;;;;;;;;;;;;;;;;5072594;28;19915;-54
2022/12/01 05:42:02;;;;;;;;;;;;;;;;;;5071534;28;19916;-57
2022/12/01 05:44:27;;;;;;;;;;;;;;;;;;5072667;28;19931;-58
2022/12/01 05:46:53;;;;;;;;;;;;;;;;;;5072637;28;19935;-56
2022/12/01 05:49:19;;;;;;;;;;;;;;;;;;5071054;28;19920;-57
2022/12/01 05:51:45;;;;;;;;;;;;;;;;;;5072585;28;19908;-53
2022/12/01 05:54:11;;;;;;;;;;;;;;;;;;5071211;28;20284;-55
2022/12/01 05:56:37;;;;;;;;;;;;;;;;;;5072626;28;19916;-53
2022/12/01 05:59:03;;;;;;;;;;;;;;;;;;5071236;28;20315;-55
2022/12/01 06:01:29;;;;;;;;;;;;;;;;;;5072317;28;20420;-55
2022/12/01 06:03:55;;;;;;;;;;;;;;;;;;5072602;28;19919;-56
2022/12/01 06:06:21;;;;;;;;;;;;;;;;;;5071071;28;19998;-55
2022/12/01 06:08:47;;;;;;;;;;;;;;;;;;5072157;28;20011;-56
2022/12/01 06:11:13;;;;;;;;;;;;;;;;;;5072379;28;19916;-56
2022/12/01 06:13:39;;;;;;;;;;;;;;;;;;5083875;28;20300;-57
2022/12/01 06:16:05;;;;;;;;;;;;;;;;;;5092392;28;19978;-54
2022/12/01 06:18:30;;;;;;;;;;;;;;;;;;5092361;28;19909;-52
2022/12/01 06:20:56;;;;;;;;;;;;;;;;;;5092423;28;19923;-54
2022/12/01 06:23:22;;;;;;;;;;;;;;;;;;5092271;28;19908;-55
2022/12/01 06:25:48;;;;;;;;;;;;;;;;;;5092564;28;19914;-57
2022/12/01 06:28:14;;;;;;;;;;;;;;;;;;5092206;28;20407;-52
2022/12/01 06:30:40;;;;;;;;;;;;;;;;;;5092086;28;19916;-54
2022/12/01 06:33:06;;;;;;;;;;;;;;;;;;5092175;28;19908;-60
2022/12/01 06:35:32;;;;;;;;;;;;;;;;;;5092234;28;19908;-57
2022/12/01 06:37:58;;;;;;;;;;;;;;;;;;5074166;28;20364;-57
2022/12/01 06:40:24;;;;;;;;;;;;;;;;;;5092131;28;19912;-55
2022/12/01 06:42:50;;;;;;;;;;;;;;;;;;5092256;28;19908;-54
2022/12/01 06:45:16;;;;;;;;;;;;;;;;;;5092201;28;19915;-56
2022/12/01 06:47:42;;;;;;;;;;;;;;;;;;5091992;28;20451;-57
2022/12/01 06:50:08;;;;;;;;;;;;;;;;;;5073855;28;19995;-54
2022/12/01 06:52:35;;;;;;;;;;;;;;;;;;5092069;28;19954;-54
2022/12/01 06:55:02;;;;;;;;;;;;;;;;;;5073975;28;20657;-58
2022/12/01 06:57:28;;;;;;;;;;;;;;;;;;5092207;28;20003;-56
2022/12/01 06:59:54;;;;;;;;;;;;;;;;;;5073702;28;20042;-54
2022/12/01 07:02:20;;;;;;;;;;;;;;;;;;5091993;28;20395;-56
2022/12/01 07:04:46;;;;;;;;;;;;;;;;;;5092159;28;19996;-56
2022/12/01 07:07:12;;;;;;;;;;;;;;;;;;5091729;28;19919;-56
2022/12/01 07:09:38;;;;;;;;;;;;;;;;;;5090532;28;20291;-57
2022/12/01 07:12:04;;;;;;;;;;;;;;;;;;5091234;28;19908;-55
2022/12/01 07:14:30;;;;;;;;;;;;;;;;;;5091923;28;20011;-55
2022/12/01 07:16:56;;;;;;;;;;;;;;;;;;5091861;28;19952;-55
2022/12/01 07:19:22;;;;;;;;;;;;;;;;;;5090533;28;19915;-56
2022/12/01 07:21:48;;;;;;;;;;;;;;;;;;5091954;28;20287;-54
2022/12/01 07:24:14;;;;;;;;;;;;;;;;;;5091814;28;19909;-52
2022/12/01 07:26:40;;;;;;;;;;;;;;;;;;5089922;28;19916;-57
2022/12/01 07:29:06;;;;;;;;;;;;;;;;;;5091601;28;19965;-55
2022/12/01 07:31:32;;;;;;;;;;;;;;;;;;5073581;28;19908;-57
2022/12/01 07:33:58;;;;;;;;;;;;;;;;;;5074277;28;19908;-55
2022/12/01 07:36:23;;;;;;;;;;;;;;;;;;5095510;28;19912;-55
2022/12/01 07:38:49;;;;;;;;;;;;;;;;;;5095378;28;19908;-55
2022/12/01 07:41:15;;;;;;;;;;;;;;;;;;5095159;28;20535;-56
2022/12/01 07:43:41;;;;;;;;;;;;;;;;;;5095290;28;19912;-56
2022/12/01 07:46:07;;;;;;;;;;;;;;;;;;5077061;28;20283;-56
2022/12/01 07:48:33;;;;;;;;;;;;;;;;;;5076519;28;20396;-54
2022/12/01 07:50:59;;;;;;;;;;;;;;;;;;5095140;28;19916;-57
2022/12/01 07:53:25;;;;;;;;;;;;;;;;;;5095145;28;19908;-55
2022/12/01 07:55:51;;;;;;;;;;;;;;;;;;5095167;28;20435;-57
2022/12/01 07:58:17;;;;;;;;;;;;;;;;;;5094894;28;20028;-56
2022/12/01 08:00:43;;;;;;;;;;;;;;;;;;5094892;28;19908;-54
2022/12/01 08:03:09;;;;;;;;;;;;;;;;;;5094794;28;19912;-56
2022/12/01 08:05:35;;;;;;;;;;;;;;;;;;5094957;28;19915;-55
2022/12/01 08:08:00;;;;;;;;;;;;;;;;;;5094939;28;19950;-56
2022/12/01 08:10:27;;;;;;;;;;;;;;;;;;5094591;28;19919;-56
2022/12/01 08:12:53;;;;;;;;;;;;;;;;;;5094563;28;20322;-57
2022/12/01 08:15:18;;;;;;;;;;;;;;;;;;5094590;28;20400;-54
2022/12/01 08:17:44;;;;;;;;;;;;;;;;;;5094168;28;20002;-56
2022/12/01 08:20:11;;;;;;;;;;;;;;;;;;5074870;28;20061;-56
2022/12/01 08:22:36;;;;;;;;;;;;;;;;;;5094141;28;19944;-55
2022/12/01 08:25:02;;;;;;;;;;;;;;;;;;5093943;28;19970;-57
2022/12/01 08:27:28;;;;;;;;;;;;;;;;;;5075773;28;20052;-56
2022/12/01 08:29:54;;;;;;;;;;;;;;;;;;5093652;28;19919;-55
2022/12/01 08:32:20;;;;;;;;;;;;;;;;;;5093908;28;19988;-52
2022/12/01 08:34:46;;;;;;;;;;;;;;;;;;5094247;28;19961;-52
2022/12/01 08:37:12;;;;;;;;;;;;;;;;;;5094292;28;20322;-54
2022/12/01 08:39:38;;;;;;;;;;;;;;;;;;5075921;28;19951;-56
2022/12/01 08:42:04;;;;;;;;;;;;;;;;;;5094218;28;19912;-56
2022/12/01 08:44:30;;;;;;;;;;;;;;;;;;5093848;28;19924;-53
2022/12/01 08:46:56;;;;;;;;;;;;;;;;;;5094181;28;19908;-54
2022/12/01 08:49:22;;;;;;;;;;;;;;;;;;5093987;28;19916;-52
2022/12/01 08:51:47;;;;;;;;;;;;;;;;;;5093962;28;20335;-54
2022/12/01 08:54:13;;;;;;;;;;;;;;;;;;5075671;28;19914;-56
2022/12/01 08:56:39;;;;;;;;;;;;;;;;;;5093763;28;19960;-56
2022/12/01 08:59:05;;;;;;;;;;;;;;;;;;5093577;28;19947;-54
2022/12/01 09:01:34;;;;;;;;;;;;;;;;;;5093690;28;19998;-56
2022/12/01 09:04:09;;;;;;;;;;;;;;;;;;5075494;28;19927;-54
2022/12/01 09:06:35;;;;;;;;;;;;;;;;;;5075485;28;19908;-55
2022/12/01 09:09:01;;;;;;;;;;;;;;;;;;5093469;28;19912;-56
2022/12/01 09:11:27;;;;;;;;;;;;;;;;;;5093466;28;19908;-52
2022/12/01 09:13:53;;;;;;;;;;;;;;;;;;5093464;28;20009;-56
2022/12/01 09:16:19;;;;;;;;;;;;;;;;;;5075338;28;19915;-52
2022/12/01 09:18:45;;;;;;;;;;;;;;;;;;5075065;28;20449;-55
2022/12/01 09:21:10;;;;;;;;;;;;;;;;;;5093442;28;19912;-52
2022/12/01 09:23:36;;;;;;;;;;;;;;;;;;5093338;28;19916;-54
2022/12/01 09:26:02;;;;;;;;;;;;;;;;;;5093150;28;19908;-55
2022/12/01 09:28:28;;;;;;;;;;;;;;;;;;5093056;28;19965;-56
2022/12/01 09:30:54;;;;;;;;;;;;;;;;;;5093317;28;19908;-55
2022/12/01 09:33:20;;;;;;;;;;;;;;;;;;5093218;28;19912;-56
2022/12/01 09:35:46;;;;;;;;;;;;;;;;;;5093111;28;19909;-53
2022/12/01 09:38:12;;;;;;;;;;;;;;;;;;5074778;28;19930;-54
2022/12/01 09:40:38;;;;;;;;;;;;;;;;;;5092799;28;20365;-56
2022/12/01 09:43:04;;;;;;;;;;;;;;;;;;5074759;28;19908;-56
2022/12/01 09:45:30;;;;;;;;;;;;;;;;;;5092967;28;19912;-55
2022/12/01 09:47:56;;;;;;;;;;;;;;;;;;5092934;28;19953;-58
2022/12/01 09:50:24;;;;;;;;;;;;;;;;;;5092794;28;19938;-55
2022/12/01 09:52:50;;;;;;;;;;;;;;;;;;5092795;28;19968;-55
2022/12/01 09:55:15;;;;;;;;;;;;;;;;;;5074454;28;19908;-52
2022/12/01 09:57:41;;;;;;;;;;;;;;;;;;5092145;28;19908;-53
2022/12/01 10:00:07;;;;;;;;;;;;;;;;;;5074469;28;19954;-54
2022/12/01 10:02:33;;;;;;;;;;;;;;;;;;5074372;28;19915;-52
2022/12/01 10:04:59;;;;;;;;;;;;;;;;;;5074426;28;19908;-56
2022/12/01 10:07:25;;;;;;;;;;;;;;;;;;5092692;28;20343;-54
2022/12/01 10:09:51;;;;;;;;;;;;;;;;;;5073992;28;20023;-52
2022/12/01 10:12:17;;;;;;;;;;;;;;;;;;5092658;28;19943;-53
2022/12/01 10:14:43;;;;;;;;;;;;;;;;;;5074281;28;19904;-54
2022/12/01 10:17:09;;;;;;;;;;;;;;;;;;5092534;28;19909;-54
2022/12/01 10:19:35;;;;;;;;;;;;;;;;;;5092556;28;19905;-54
2022/12/01 10:22:01;;;;;;;;;;;;;;;;;;5092364;28;19934;-55
2022/12/01 10:24:27;;;;;;;;;;;;;;;;;;5092128;28;19995;-57
2022/12/01 10:26:52;;;;;;;;;;;;;;;;;;5092292;28;20016;-58
2022/12/01 10:29:18;;;;;;;;;;;;;;;;;;5092136;28;19935;-56
2022/12/01 10:31:44;;;;;;;;;;;;;;;;;;5092355;28;20380;-53
2022/12/01 10:34:10;;;;;;;;;;;;;;;;;;5074102;28;20360;-52
2022/12/01 10:36:36;;;;;;;;;;;;;;;;;;5092191;28;19915;-56
2022/12/01 10:39:02;;;;;;;;;;;;;;;;;;5091917;28;19915;-53
2022/12/01 10:41:28;;;;;;;;;;;;;;;;;;5092226;28;19916;-54
2022/12/01 10:43:56;;;;;;;;;;;;;;;;;;5074026;28;19912;-55
2022/12/01 10:46:22;;;;;;;;;;;;;;;;;;5092286;28;19995;-55
2022/12/01 10:48:48;;;;;;;;;;;;;;;;;;5091901;28;20003;-55
2022/12/01 10:51:13;;;;;;;;;;;;;;;;;;5073953;28;20000;-56
2022/12/01 10:53:39;;;;;;;;;;;;;;;;;;5091844;28;19995;-56
2022/12/01 10:56:05;;;;;;;;;;;;;;;;;;5092252;28;19908;-56
2022/12/01 10:58:31;;;;;;;;;;;;;;;;;;5074016;28;20331;-56
2022/12/01 11:00:57;;;;;;;;;;;;;;;;;;5092023;28;20350;-57
2022/12/01 11:03:23;;;;;;;;;;;;;;;;;;5073710;28;19916;-58
2022/12/01 11:05:51;;;;;;;;;;;;;;;;;;5091803;28;19961;-56
2022/12/01 11:08:16;;;;;;;;;;;;;;;;;;5073537;28;19998;-54
2022/12/01 11:10:42;;;;;;;;;;;;;;;;;;5077229;28;20447;-55
2022/12/01 11:13:08;;;;;;;;;;;;;;;;;;5094800;28;19957;-55
2022/12/01 11:15:36;;;;;;;;;;;;;;;;;;5094103;28;20628;-55
2022/12/01 11:18:02;;;;;;;;;;;;;;;;;;5095321;28;19912;-54
2022/12/01 11:20:28;;;;;;;;;;;;;;;;;;5095335;28;20291;-56
2022/12/01 11:22:54;;;;;;;;;;;;;;;;;;5076528;28;20356;-55
2022/12/01 11:25:20;;;;;;;;;;;;;;;;;;5095495;28;19916;-57
2022/12/01 11:27:46;;;;;;;;;;;;;;;;;;5095219;28;19919;-56
2022/12/01 11:30:12;;;;;;;;;;;;;;;;;;5076952;28;19908;-55
2022/12/01 11:32:38;;;;;;;;;;;;;;;;;;5095116;28;19969;-58
2022/12/01 11:35:04;;;;;;;;;;;;;;;;;;5094322;28;19912;-57
2022/12/01 11:37:31;;;;;;;;;;;;;;;;;;5095155;28;19919;-55
2022/12/01 11:39:57;;;;;;;;;;;;;;;;;;5094480;28;20092;-61
2022/12/01 11:42:23;;;;;;;;;;;;;;;;;;5094157;28;19951;-55
2022/12/01 11:44:49;;;;;;;;;;;;;;;;;;5076640;28;19913;-56
2022/12/01 11:47:15;;;;;;;;;;;;;;;;;;5094731;28;19920;-55
2022/12/01 11:49:41;;;;;;;;;;;;;;;;;;5094784;28;19916;-54
2022/12/01 11:52:07;;;;;;;;;;;;;;;;;;5094773;28;20357;-58
2022/12/01 11:54:33;;;;;;;;;;;;;;;;;;5074338;28;19913;-56
2022/12/01 11:56:59;;;;;;;;;;;;;;;;;;5094528;28;19918;-54
2022/12/01 11:59:25;;;;;;;;;;;;;;;;;;5076096;28;19985;-58
2022/12/01 12:01:51;;;;;;;;;;;;;;;;;;5092767;28;21036;-59
2022/12/01 12:04:17;;;;;;;;;;;;;;;;;;5104913;22;20007;-53
2022/12/01 12:06:42;;;;;;;;;;;;;;;;;;5100011;28;19926;-51
2022/12/01 12:09:08;;;;;;;;;;;;;;;;;;5093143;28;20018;-52
2022/12/01 12:11:34;;;;;;;;;;;;;;;;;;5096798;28;20435;-50
2022/12/01 12:14:00;;;;;;;;;;;;;;;;;;5082526;28;20292;-49
2022/12/01 12:16:26;;;;;;;;;;;;;;;;;;5073503;28;20426;-50
2022/12/01 12:18:52;;;;;;;;;;;;;;;;;;5072267;28;19920;-50
2022/12/01 12:21:18;;;;;;;;;;;;;;;;;;5072971;28;20372;-53
2022/12/01 12:23:44;;;;;;;;;;;;;;;;;;5074039;28;19958;-51
2022/12/01 12:26:10;;;;;;;;;;;;;;;;;;5073329;28;19912;-50
2022/12/01 12:28:36;;;;;;;;;;;;;;;;;;5072266;28;19959;-50
2022/12/01 12:31:02;;;;;;;;;;;;;;;;;;5073463;28;19921;-53
2022/12/01 12:33:28;;;;;;;;;;;;;;;;;;5073793;28;19913;-52
2022/12/01 12:35:54;;;;;;;;;;;;;;;;;;5074216;28;19908;-50
2022/12/01 12:38:20;;;;;;;;;;;;;;;;;;5073362;28;20400;-50
2022/12/01 12:40:46;;;;;;;;;;;;;;;;;;5073864;28;19913;-51
2022/12/01 12:43:12;;;;;;;;;;;;;;;;;;5073909;28;19997;-49
2022/12/01 12:45:38;;;;;;;;;;;;;;;;;;5073346;28;19912;-50
2022/12/01 12:48:04;;;;;;;;;;;;;;;;;;5073569;28;19958;-50
2022/12/01 12:50:30;;;;;;;;;;;;;;;;;;5073246;28;20339;-50
2022/12/01 12:52:56;;;;;;;;;;;;;;;;;;5073578;28;20015;-50
2022/12/01 12:55:22;;;;;;;;;;;;;;;;;;5073461;28;19954;-51
2022/12/01 12:57:48;;;;;;;;;;;;;;;;;;5073684;28;19908;-50
2022/12/01 13:00:14;;;;;;;;;;;;;;;;;;5072990;28;20388;-52
2022/12/01 13:02:40;;;;;;;;;;;;;;;;;;5073485;28;19912;-50
2022/12/01 13:05:06;;;;;;;;;;;;;;;;;;5073234;28;20437;-50
2022/12/01 13:07:50;;;;;;;;;;;7.80;89.90;;;;;;5073078;28;19966;-53
2022/12/01 13:10:16;;;;;;;;;;;;;;;;;;5072880;28;19921;-50
2022/12/01 13:12:42;;;;;;;;;;;;;;;;;;5073349;28;20331;-51
2022/12/01 13:15:08;;;;;;;;;;;;;;;;;;5072510;28;19916;-51
2022/12/01 13:17:33;;;;;;;;;;;;;;;;;;5073210;28;20057;-51
2022/12/01 13:19:59;;;;;;;;;;;;;;;;;;5072772;28;19957;-50
2022/12/01 13:22:25;;;;;;;;;;;;;;;;;;5072894;28;19951;-50
2022/12/01 13:24:51;;;;;;;;;;;;;;;;;;5073103;28;19919;-50
2022/12/01 13:27:17;;;;;;;;;;;;;;;;;;5073083;28;19908;-50
2022/12/01 13:29:43;;;;;;;;;;;;;;;;;;5072427;28;19920;-52
2022/12/01 13:32:09;;;;;;;;;;;;;;;;;;5071689;28;19913;-50
2022/12/01 13:34:35;;;;;;;;;;;;;;;;;;5072884;28;19913;-50
2022/12/01 13:37:01;;;;;;;;;;;;;;;;;;5072523;28;20442;-50
2022/12/01 13:39:27;;;;;;;;;;;;;;;;;;5072284;28;19938;-50
2022/12/01 13:41:53;;;;;;;;;;;;;;;;;;5072643;28;19916;-50
2022/12/01 13:44:19;;;;;;;;;;;;;;;;;;5072216;28;19908;-50
2022/12/01 13:46:44;;;;;;;;;;;;;;;;;;5072351;28;19913;-49
2022/12/01 13:49:10;;;;;;;;;;;;;;;;;;5070893;28;20361;-51
2022/12/01 13:51:36;;;;;;;;;;;;;;;;;;5072295;28;19919;-50
2022/12/01 13:54:02;;;;;;;;;;;;;;;;;;5072550;28;19908;-52
2022/12/01 13:56:28;;;;;;;;;;;;;;;;;;5072935;28;19916;-50
2022/12/01 13:58:54;;;;;;;;;;;;;;;;;;5070934;28;19908;-50
2022/12/01 14:01:20;;;;;;;;;;;;;;;;;;5072229;28;19913;-49
2022/12/01 14:03:46;;;;;;;;;;;;;;;;;;5072647;28;19959;-51
2022/12/01 14:06:12;;;;;;;;;;;;;;;;;;5072114;28;19916;-49
2022/12/01 14:08:38;;;;;;;;;;;;;;;;;;5071995;28;19916;-50
2022/12/01 14:11:04;;;;;;;;;;;;;;;;;;5070858;28;19912;-50
2022/12/01 14:13:30;;;;;;;;;;;;;;;;;;5070812;28;19915;-50
2022/12/01 14:15:56;;;;;;;;;;;;;;;;;;5072050;28;19913;-50
2022/12/01 14:18:22;;;;;;;;;;;;;;;;;;5072154;28;19930;-50
2022/12/01 14:20:48;;;;;;;;;;;;;;;;;;5072049;28;19913;-49
2022/12/01 14:23:14;;;;;;;;;;;;;;;;;;5070924;28;19912;-49
2022/12/01 14:25:40;;;;;;;;;;;;;;;;;;5071921;28;20385;-50
2022/12/01 14:28:06;;;;;;;;;;;;;;;;;;5070587;28;20369;-52
2022/12/01 14:30:32;;;;;;;;;;;;;;;;;;5068286;28;19946;-50
2022/12/01 14:32:57;;;;;;;;;;;;;;;;;;5072046;28;20012;-49
2022/12/01 14:35:23;;;;;;;;;;;;;;;;;;5071461;28;19961;-50
2022/12/01 14:37:49;;;;;;;;;;;;;;;;;;5071832;28;19908;-50
2022/12/01 14:40:15;;;;;;;;;;;;;;;;;;5073044;28;19937;-50
2022/12/01 14:45:26;;;;;;;;;;;;;;;;;;5075441;28;19975;-50
2022/12/01 14:47:52;;;;;;;;;;;;;;;;;;5076154;28;19909;-51
2022/12/01 14:50:18;;;;;;;;;;;;;;;;;;5074607;28;19956;-49
2022/12/01 14:52:44;;;;;;;;;;;;;;;;;;5075122;28;19916;-51
2022/12/01 14:55:10;;;;;;;;;;;;;;;;;;5075302;28;19913;-52
2022/12/01 14:57:36;;;;;;;;;;;;;;;;;;5076569;28;19912;-50
2022/12/01 15:00:01;;;;;;;;;;;;;;;;;;5090134;28;20005;-54
2022/12/01 15:02:27;;;;;;;;;;;;;;;;;;5079436;28;19959;-53
2022/12/01 15:04:53;;;;;;;;;;;;;;;;;;5077336;28;19959;-50
2022/12/01 15:07:19;;;;;;;;;;;;;;;;;;5096069;28;19916;-50
2022/12/01 15:09:45;;;;;;;;;;;;;;;;;;5095684;28;19958;-50
2022/12/01 15:12:11;;;;;;;;;;;;;;;;;;5095856;28;20364;-51
2022/12/01 15:14:37;;;;;;;;;;;;;;;;;;5084877;28;19934;-51
2022/12/01 15:17:04;;;;;;;;;;;;;;;;;;5075564;28;20301;-52
2022/12/01 15:19:30;;;;;;;;;;;;;;;;;;5087801;28;20530;-50
2022/12/01 15:21:56;;;;;;;;;;;;;;;;;;5075541;28;20007;-52
2022/12/01 15:24:22;;;;;;;;;;;;;;;;;;5083179;28;19974;-53
2022/12/01 15:26:48;;;;;;;;;;;;;;;;;;5095578;28;19922;-52
2022/12/01 15:29:14;;;;;;;;;;;;;;;;;;5095351;28;19916;-50
2022/12/01 15:31:41;;;;;;;;;;;;;;;;;;5094307;28;19916;-53
2022/12/01 15:34:07;;;;;;;;;;;;;;;;;;5095469;28;20387;-50
2022/12/01 15:36:33;;;;;;;;;;;;;;;;;;5093925;28;19916;-50
2022/12/01 15:39:00;;;;;;;;;;;;;;;;;;5095139;28;19919;-50
2022/12/01 15:41:26;;;;;;;;;;;;;;;;;;5094398;28;19908;-50
2022/12/01 15:43:52;;;;;;;;;;;;;;;;;;5095258;28;20284;-51
2022/12/01 15:46:17;;;;;;;;;;;;;;;;;;5095242;28;19909;-50
2022/12/01 15:48:44;;;;;;;;;;;;;;;;;;5094991;28;19916;-50
2022/12/01 15:51:10;;;;;;;;;;;;;;;;;;5094008;28;19991;-51
2022/12/01 15:53:36;;;;;;;;;;;;;;;;;;5094995;28;20007;-52
2022/12/01 15:56:02;;;;;;;;;;;;;;;;;;5094194;28;19908;-50
2022/12/01 15:58:29;;;;;;;;;;;;;;;;;;5094881;28;20440;-50
2022/12/01 16:00:55;;;;;;;;;;;;;;;;;;5095109;28;19908;-50
2022/12/01 16:03:20;;;;;;;;;;;;;;;;;;5094807;28;19971;-50
2022/12/01 16:05:46;;;;;;;;;;;;;;;;;;5094926;28;20431;-49
2022/12/01 16:08:12;;;;;;;;;;;;;;;;;;5076015;28;19919;-50
2022/12/01 16:10:38;;;;;;;;;;;;;;;;;;5074136;28;19912;-49
2022/12/01 16:13:04;;;;;;;;;;;;;;;;;;5074624;28;20007;-50
2022/12/01 16:15:30;;;;;;;;;;;;;;;;;;5073099;28;19913;-51
2022/12/01 16:17:56;;;;;;;;;;;;;;;;;;5074057;28;20296;-50
2022/12/01 16:20:22;;;;;;;;;;;;;;;;;;5074101;28;19912;-50
2022/12/01 16:22:48;;;;;;;;;;;;;;;;;;5074271;28;19912;-49
2022/12/01 16:25:14;;;;;;;;;;;;;;;;;;5073896;28;19969;-50
2022/12/01 16:27:39;;;;;;;;;;;;;;;;;;5073364;28;19948;-49
2022/12/01 16:30:07;;;;;;;;;;;;;;;;;;5073790;28;19970;-50
2022/12/01 16:32:32;;;;;;;;;;;;;;;;;;5074026;28;19919;-49
2022/12/01 16:34:58;;;;;;;;;;;;;;;;;;5073565;28;19912;-50
2022/12/01 16:37:24;;;;;;;;;;;;;;;;;;5073788;28;19948;-50
2022/12/01 16:39:50;;;;;;;;;;;;;;;;;;5072744;28;19958;-49
2022/12/01 16:42:16;;;;;;;;;;;;;;;;;;5072864;28;19924;-50
2022/12/01 16:44:43;;;;;;;;;;;;;;;;;;5074258;28;19948;-50
2022/12/01 16:47:09;;;;;;;;;;;;;;;;;;5074091;28;20018;-49
2022/12/01 16:49:35;;;;;;;;;;;;;;;;;;5071699;28;20379;-52
2022/12/01 16:52:01;;;;;;;;;;;;;;;;;;5077889;28;19943;-50